createdAt,value
2022-11-01T00:01:07.992Z,5.18
2022-11-01T00:03:34.877Z,4.80
2022-11-01T00:06:01.733Z,4.95
2022-11-01T00:08:28.688Z,4.22
2022-11-01T00:11:05.062Z,5.43
2022-11-01T00:13:31.829Z,3.53
2022-11-01T00:15:58.634Z,6.30
2022-11-01T00:18:25.402Z,3.88
2022-11-01T00:20:52.149Z,4.93
2022-11-01T00:23:18.875Z,4.07
2022-11-01T00:25:45.653Z,6.35
2022-11-01T00:28:12.373Z,3.88
2022-11-01T00:30:39.752Z,5.43
2022-11-01T00:33:06.861Z,3.63
2022-11-01T00:35:33.890Z,4.22
2022-11-01T00:38:01.138Z,2.30
2022-11-01T00:40:28.225Z,2.95
2022-11-01T00:42:55.125Z,4.82
2022-11-01T00:45:21.881Z,6.15
2022-11-01T00:47:48.667Z,3.42
2022-11-01T00:50:15.675Z,5.28
2022-11-01T00:52:42.425Z,6.28
2022-11-01T00:55:09.553Z,6.28
2022-11-01T00:57:36.410Z,4.82
2022-11-01T01:00:04.280Z,5.18
2022-11-01T01:02:31.160Z,5.05
2022-11-01T01:04:57.969Z,4.78
2022-11-01T01:07:24.807Z,8.20
2022-11-01T01:09:51.579Z,8.65
2022-11-01T01:12:18.401Z,3.88
2022-11-01T01:14:45.189Z,5.07
2022-11-01T01:17:12.061Z,7.90
2022-11-01T01:19:38.826Z,5.45
2022-11-01T01:22:05.596Z,5.50
2022-11-01T01:24:32.463Z,5.03
2022-11-01T01:26:59.383Z,3.42
2022-11-01T01:29:26.179Z,4.03
2022-11-01T01:31:52.927Z,5.45
2022-11-01T01:34:19.767Z,5.85
2022-11-01T01:36:47.205Z,6.32
2022-11-01T01:39:14.185Z,5.43
2022-11-01T01:41:55.979Z,5.55
2022-11-01T01:44:41.550Z,7.55
2022-11-01T01:47:12.758Z,4.20
2022-11-01T01:49:42.504Z,4.60
2022-11-01T01:52:09.643Z,8.43
2022-11-01T01:54:36.389Z,6.38
2022-11-01T01:57:03.110Z,3.33
2022-11-01T01:59:29.934Z,4.07
2022-11-01T02:01:57.556Z,5.38
2022-11-01T02:04:54.313Z,5.10
2022-11-01T02:07:21.108Z,5.88
2022-11-01T02:09:47.876Z,4.75
2022-11-01T02:12:14.748Z,4.72
2022-11-01T02:14:42.307Z,7.97
2022-11-01T02:17:33.683Z,7.47
2022-11-01T02:20:25.320Z,6.03
2022-11-01T02:23:01.225Z,4.07
2022-11-01T02:25:46.338Z,5.63
2022-11-01T02:28:22.320Z,5.30
2022-11-01T02:30:57.797Z,3.80
2022-11-01T02:33:34.806Z,4.28
2022-11-01T02:36:05.902Z,6.15
2022-11-01T02:38:37.963Z,5.45
2022-11-01T02:41:20.021Z,6.68
2022-11-01T02:43:59.837Z,4.28
2022-11-01T02:46:44.861Z,3.35
2022-11-01T02:49:12.840Z,2.47
2022-11-01T02:51:39.680Z,2.92
2022-11-01T02:54:13.189Z,2.63
2022-11-01T02:56:39.934Z,2.47
2022-11-01T02:59:08.897Z,3.03
2022-11-01T03:01:36.226Z,1.48
2022-11-01T03:04:03.226Z,1.83
2022-11-01T03:06:35.828Z,2.10
2022-11-01T03:09:07.618Z,1.95
2022-11-01T03:11:57.142Z,4.00
2022-11-01T03:14:38.391Z,1.98
2022-11-01T03:17:07.990Z,4.43
2022-11-01T03:19:59.004Z,2.47
2022-11-01T03:22:36.114Z,6.97
2022-11-01T03:25:31.745Z,3.70
2022-11-01T03:28:00.290Z,4.63
2022-11-01T03:30:27.118Z,6.10
2022-11-01T03:32:55.206Z,6.70
2022-11-01T03:35:26.688Z,7.80
2022-11-01T03:37:55.369Z,5.07
2022-11-01T03:40:22.614Z,5.47
2022-11-01T03:42:50.089Z,9.15
2022-11-01T03:45:19.822Z,4.50
2022-11-01T03:47:46.649Z,7.85
2022-11-01T03:50:27.164Z,4.93
2022-11-01T03:52:54.186Z,8.40
2022-11-01T03:55:21.266Z,7.13
2022-11-01T03:57:55.440Z,10.60
2022-11-01T04:00:27.037Z,7.63
2022-11-01T04:02:54.354Z,9.05
2022-11-01T04:05:22.088Z,6.80
2022-11-01T04:07:48.892Z,7.25
2022-11-01T04:10:15.756Z,6.95
2022-11-01T04:12:45.144Z,8.27
2022-11-01T04:15:30.890Z,6.95
2022-11-01T04:18:36.976Z,7.43
2022-11-01T04:21:10.187Z,5.18
2022-11-01T04:23:37.024Z,5.45
2022-11-01T04:26:04.604Z,7.43
2022-11-01T04:28:31.392Z,7.82
2022-11-01T04:30:58.137Z,4.55
2022-11-01T04:33:25.010Z,7.47
2022-11-01T04:35:51.880Z,5.40
2022-11-01T04:38:18.641Z,6.18
2022-11-01T04:40:45.437Z,8.20
2022-11-01T04:43:15.195Z,4.20
2022-11-01T04:45:41.984Z,2.53
2022-11-01T04:48:15.910Z,4.38
2022-11-01T04:50:43.013Z,5.57
2022-11-01T04:53:10.205Z,6.28
2022-11-01T04:55:37.035Z,3.83
2022-11-01T04:58:04.515Z,6.55
2022-11-01T05:00:33.237Z,6.43
2022-11-01T05:03:01.668Z,6.05
2022-11-01T05:05:28.716Z,3.40
2022-11-01T05:08:05.708Z,5.32
2022-11-01T05:10:33.062Z,6.72
2022-11-01T05:13:01.423Z,5.10
2022-11-01T05:15:28.538Z,9.00
2022-11-01T05:17:55.398Z,5.45
2022-11-01T05:20:22.156Z,6.57
2022-11-01T05:22:49.168Z,3.85
2022-11-01T05:25:16.568Z,3.45
2022-11-01T05:27:43.344Z,7.05
2022-11-01T05:30:10.741Z,3.17
2022-11-01T05:32:38.047Z,6.38
2022-11-01T05:35:05.034Z,4.95
2022-11-01T05:37:31.796Z,3.67
2022-11-01T05:39:58.540Z,3.45
2022-11-01T05:42:25.496Z,6.88
2022-11-01T05:44:52.238Z,6.18
2022-11-01T05:47:19.013Z,3.47
2022-11-01T05:49:45.977Z,4.03
2022-11-01T05:52:12.767Z,8.52
2022-11-01T05:54:39.545Z,3.95
2022-11-01T05:57:06.470Z,4.45
2022-11-01T05:59:33.252Z,4.78
2022-11-01T06:02:00.111Z,3.92
2022-11-01T06:04:26.967Z,6.65
2022-11-01T06:06:53.763Z,7.72
2022-11-01T06:09:20.503Z,6.13
2022-11-01T06:11:47.275Z,5.93
2022-11-01T06:14:14.103Z,9.30
2022-11-01T06:16:40.877Z,8.48
2022-11-01T06:19:08.848Z,3.47
2022-11-01T06:21:38.276Z,5.10
2022-11-01T06:24:05.633Z,3.17
2022-11-01T06:26:32.421Z,6.03
2022-11-01T06:29:02.851Z,5.93
2022-11-01T06:31:29.759Z,4.60
2022-11-01T06:33:56.499Z,7.22
2022-11-01T06:36:23.559Z,6.30
2022-11-01T06:38:50.394Z,6.05
2022-11-01T06:41:17.193Z,6.68
2022-11-01T06:43:43.950Z,7.18
2022-11-01T06:46:10.729Z,4.65
2022-11-01T06:48:37.742Z,4.88
2022-11-01T06:51:05.074Z,4.15
2022-11-01T06:53:31.858Z,2.47
2022-11-01T06:56:00.164Z,4.35
2022-11-01T06:58:27.422Z,5.18
2022-11-01T07:00:54.279Z,6.60
2022-11-01T07:03:21.187Z,4.75
2022-11-01T07:05:49.645Z,6.15
2022-11-01T07:08:16.480Z,6.65
2022-11-01T07:10:43.377Z,5.55
2022-11-01T07:13:11.513Z,9.05
2022-11-01T07:15:38.439Z,6.72
2022-11-01T07:18:06.624Z,5.93
2022-11-01T07:20:41.682Z,7.95
2022-11-01T07:23:13.801Z,5.47
2022-11-01T07:25:40.607Z,7.13
2022-11-01T07:28:07.482Z,11.05
2022-11-01T07:30:34.300Z,6.43
2022-11-01T07:33:02.740Z,8.80
2022-11-01T07:35:29.882Z,9.40
2022-11-01T07:37:58.282Z,10.25
2022-11-01T07:40:27.697Z,5.63
2022-11-01T07:43:03.963Z,4.18
2022-11-01T07:45:31.843Z,8.25
2022-11-01T07:48:02.999Z,9.35
2022-11-01T07:50:31.536Z,8.40
2022-11-01T07:53:09.180Z,7.80
2022-11-01T07:55:36.751Z,5.78
2022-11-01T07:58:04.696Z,5.05
2022-11-01T08:00:31.897Z,5.03
2022-11-01T08:03:08.913Z,5.43
2022-11-01T08:05:35.800Z,6.00
2022-11-01T08:08:02.955Z,3.72
2022-11-01T08:10:30.068Z,9.90
2022-11-01T08:13:24.337Z,6.95
2022-11-01T08:15:51.719Z,7.68
2022-11-01T08:18:18.866Z,6.22
2022-11-01T08:20:45.566Z,6.85
2022-11-01T08:23:12.894Z,6.72
2022-11-01T08:25:39.811Z,7.38
2022-11-01T08:28:08.561Z,10.20
2022-11-01T08:30:36.277Z,9.25
2022-11-01T08:33:03.719Z,7.07
2022-11-01T08:35:31.071Z,5.82
2022-11-01T08:38:00.207Z,5.93
2022-11-01T08:40:28.272Z,6.18
2022-11-01T08:42:56.285Z,6.13
2022-11-01T08:45:23.403Z,4.90
2022-11-01T08:47:50.142Z,6.28
2022-11-01T08:50:17.595Z,5.93
2022-11-01T08:52:44.573Z,7.65
2022-11-01T08:55:11.755Z,7.15
2022-11-01T08:57:38.535Z,5.22
2022-11-01T09:00:07.147Z,4.22
2022-11-01T09:02:34.291Z,5.50
2022-11-01T09:05:07.689Z,4.63
2022-11-01T09:07:37.901Z,3.38
2022-11-01T09:10:05.305Z,5.88
2022-11-01T09:12:32.441Z,5.63
2022-11-01T09:14:59.230Z,6.22
2022-11-01T09:17:25.968Z,5.88
2022-11-01T09:19:52.835Z,5.00
2022-11-01T09:22:19.682Z,8.05
2022-11-01T09:24:46.506Z,8.88
2022-11-01T09:27:13.290Z,7.13
2022-11-01T09:29:40.051Z,5.38
2022-11-01T09:32:06.831Z,4.28
2022-11-01T09:34:34.247Z,5.78
2022-11-01T09:37:01.158Z,5.43
2022-11-01T09:39:28.035Z,5.45
2022-11-01T09:42:06.714Z,5.57
2022-11-01T09:44:39.654Z,5.93
2022-11-01T09:47:26.553Z,6.35
2022-11-01T09:50:06.695Z,5.70
2022-11-01T09:52:33.502Z,4.35
2022-11-01T09:55:00.538Z,5.20
2022-11-01T09:57:39.535Z,6.15
2022-11-01T10:00:13.819Z,3.55
2022-11-01T10:02:52.905Z,3.30
2022-11-01T10:05:31.617Z,3.80
2022-11-01T10:08:17.947Z,5.93
2022-11-01T10:11:08.823Z,6.80
2022-11-01T10:13:48.075Z,4.82
2022-11-01T10:16:23.131Z,5.80
2022-11-01T10:19:00.607Z,6.70
2022-11-01T10:21:29.773Z,6.20
2022-11-01T10:23:56.766Z,5.72
2022-11-01T10:26:28.989Z,3.50
2022-11-01T10:29:21.909Z,4.10
2022-11-01T10:31:50.949Z,4.85
2022-11-01T10:34:20.762Z,5.80
2022-11-01T10:36:47.563Z,4.45
2022-11-01T10:42:17.032Z,5.15
2022-11-01T10:44:46.796Z,4.38
2022-11-01T10:47:19.213Z,2.22
2022-11-01T10:50:06.446Z,4.22
2022-11-01T10:52:55.851Z,4.82
2022-11-01T10:55:40.067Z,2.05
2022-11-01T10:58:28.115Z,3.72
2022-11-01T11:00:55.154Z,3.30
2022-11-01T11:03:24.214Z,2.08
2022-11-01T11:05:51.392Z,2.92
2022-11-01T11:08:19.444Z,2.13
2022-11-01T11:10:46.327Z,1.67
2022-11-01T11:13:14.295Z,2.22
2022-11-01T11:15:44.614Z,3.50
2022-11-01T11:18:30.665Z,3.22
2022-11-01T11:21:04.805Z,1.60
2022-11-01T11:23:34.170Z,2.83
2022-11-01T11:26:18.066Z,2.05
2022-11-01T11:28:47.508Z,7.10
2022-11-01T11:31:36.675Z,3.20
2022-11-01T11:34:22.112Z,2.83
2022-11-01T11:36:49.872Z,2.53
2022-11-01T11:39:26.384Z,3.25
2022-11-01T11:41:53.181Z,2.53
2022-11-01T11:44:35.147Z,1.55
2022-11-01T11:47:05.261Z,3.72
2022-11-01T11:49:34.783Z,5.35
2022-11-01T11:52:01.583Z,3.33
2022-11-01T11:54:31.355Z,3.10
2022-11-01T11:57:11.581Z,6.60
2022-11-01T11:59:38.751Z,6.28
2022-11-01T12:02:15.014Z,3.47
2022-11-01T12:04:47.247Z,2.55
2022-11-01T12:07:23.101Z,4.82
2022-11-01T12:09:49.919Z,3.53
2022-11-01T12:12:20.490Z,3.60
2022-11-01T12:14:47.291Z,4.72
2022-11-01T12:17:33.789Z,4.30
2022-11-01T12:20:09.607Z,3.60
2022-11-01T12:22:37.214Z,4.50
2022-11-01T12:25:11.101Z,3.50
2022-11-01T12:27:38.088Z,3.90
2022-11-01T12:30:11.469Z,2.70
2022-11-01T12:32:54.969Z,4.22
2022-11-01T12:35:42.298Z,1.95
2022-11-01T12:38:27.794Z,3.55
2022-11-01T12:40:54.572Z,3.92
2022-11-01T12:43:35.806Z,5.90
2022-11-01T12:46:08.640Z,5.03
2022-11-01T12:48:37.534Z,7.10
2022-11-01T12:51:13.325Z,6.47
2022-11-01T12:53:44.885Z,4.28
2022-11-01T12:56:12.123Z,6.30
2022-11-01T12:58:39.174Z,7.97
2022-11-01T13:01:05.893Z,6.47
2022-11-01T13:04:05.653Z,4.07
2022-11-01T13:07:10.145Z,6.15
2022-11-01T13:10:05.246Z,10.73
2022-11-01T13:12:53.322Z,8.20
2022-11-01T13:15:58.130Z,8.75
2022-11-01T13:18:59.997Z,6.80
2022-11-01T13:21:33.322Z,6.68
2022-11-01T13:24:24.821Z,4.63
2022-11-01T13:27:11.324Z,2.85
2022-11-01T13:29:59.274Z,3.88
2022-11-01T13:32:59.293Z,5.18
2022-11-01T13:35:32.415Z,3.97
2022-11-01T13:38:12.838Z,3.50
2022-11-01T13:40:53.436Z,2.40
2022-11-01T13:43:24.555Z,4.57
2022-11-01T13:46:12.584Z,4.10
2022-11-01T13:49:07.224Z,2.35
2022-11-01T13:51:55.266Z,3.08
2022-11-01T13:54:44.001Z,1.95
2022-11-01T13:57:15.283Z,2.80
2022-11-01T13:59:45.030Z,1.27
2022-11-01T14:02:27.226Z,5.93
2022-11-01T14:05:12.666Z,1.50
2022-11-01T14:07:45.437Z,2.97
2022-11-01T14:10:17.937Z,3.08
2022-11-01T14:12:48.304Z,2.15
2022-11-01T14:15:17.421Z,2.20
2022-11-01T14:17:55.329Z,1.45
2022-11-01T14:20:28.335Z,1.33
2022-11-01T14:22:55.903Z,2.25
2022-11-01T14:25:25.372Z,1.50
2022-11-01T14:28:17.842Z,0.75
2022-11-01T14:30:46.268Z,1.58
2022-11-01T14:33:18.621Z,1.45
2022-11-01T14:35:46.986Z,2.63
2022-11-01T14:38:15.445Z,1.73
2022-11-01T14:40:57.674Z,2.50
2022-11-01T14:43:32.283Z,1.25
2022-11-01T14:46:08.094Z,2.72
2022-11-01T14:49:00.723Z,2.33
2022-11-01T14:51:32.914Z,1.90
2022-11-01T14:54:14.649Z,1.63
2022-11-01T14:56:42.304Z,2.38
2022-11-01T14:59:21.207Z,1.20
2022-11-01T15:02:02.717Z,1.70
2022-11-01T15:04:32.586Z,2.95
2022-11-01T15:07:00.273Z,1.98
2022-11-01T15:09:28.471Z,2.60
2022-11-01T15:12:04.124Z,2.05
2022-11-01T15:14:51.226Z,2.08
2022-11-01T15:17:22.721Z,3.28
2022-11-01T15:19:52.241Z,1.55
2022-11-01T15:22:21.218Z,1.25
2022-11-01T15:24:48.407Z,3.67
2022-11-01T15:27:20.147Z,1.58
2022-11-01T15:29:47.375Z,2.88
2022-11-01T15:32:29.827Z,2.25
2022-11-01T15:34:58.527Z,1.95
2022-11-01T15:37:33.408Z,2.22
2022-11-01T15:40:00.614Z,1.65
2022-11-01T15:42:34.828Z,2.17
2022-11-01T15:45:23.051Z,2.50
2022-11-01T15:47:49.954Z,1.95
2022-11-01T15:50:16.795Z,1.77
2022-11-01T15:52:45.242Z,3.20
2022-11-01T15:55:21.356Z,2.83
2022-11-01T15:58:00.001Z,3.10
2022-11-01T16:00:42.017Z,2.45
2022-11-01T16:03:28.160Z,3.38
2022-11-01T16:06:00.787Z,3.47
2022-11-01T16:08:31.226Z,4.47
2022-11-01T16:10:58.058Z,2.40
2022-11-01T16:13:24.865Z,3.50
2022-11-01T16:16:21.224Z,4.18
2022-11-01T16:18:48.059Z,1.77
2022-11-01T16:21:26.582Z,2.60
2022-11-01T16:24:09.750Z,3.35
2022-11-01T16:27:12.801Z,2.92
2022-11-01T16:29:39.622Z,6.43
2022-11-01T16:32:10.109Z,6.32
2022-11-01T16:34:37.152Z,4.05
2022-11-01T16:37:17.354Z,4.25
2022-11-01T16:39:45.104Z,3.05
2022-11-01T16:42:11.905Z,3.67
2022-11-01T16:44:40.039Z,3.65
2022-11-01T16:47:06.903Z,6.47
2022-11-01T16:49:33.669Z,3.20
2022-11-01T16:52:00.498Z,5.97
2022-11-01T16:54:28.515Z,7.38
2022-11-01T16:56:56.408Z,3.20
2022-11-01T16:59:39.136Z,3.67
2022-11-01T17:02:23.953Z,4.07
2022-11-01T17:04:58.667Z,4.22
2022-11-01T17:07:25.496Z,3.28
2022-11-01T17:09:52.312Z,2.88
2022-11-01T17:12:20.693Z,6.25
2022-11-01T17:14:47.879Z,3.42
2022-11-01T17:17:15.971Z,2.90
2022-11-01T17:19:49.291Z,5.97
2022-11-01T17:22:23.285Z,4.30
2022-11-01T17:24:50.062Z,4.13
2022-11-01T17:27:17.289Z,3.67
2022-11-01T17:29:44.026Z,4.38
2022-11-01T17:32:11.444Z,4.50
2022-11-01T17:34:38.389Z,3.65
2022-11-01T17:37:05.296Z,4.47
2022-11-01T17:39:32.120Z,6.28
2022-11-01T17:41:59.387Z,4.85
2022-11-01T17:44:26.298Z,5.72
2022-11-01T17:46:53.084Z,3.33
2022-11-01T17:49:22.635Z,4.93
2022-11-01T17:51:54.414Z,6.68
2022-11-01T17:54:23.159Z,6.53
2022-11-01T17:56:51.543Z,3.60
2022-11-01T17:59:18.559Z,2.42
2022-11-01T18:01:45.622Z,3.35
2022-11-01T18:04:12.601Z,3.35
2022-11-01T18:06:40.788Z,2.65
2022-11-01T18:09:20.887Z,2.70
2022-11-01T18:12:12.090Z,1.38
2022-11-01T18:14:41.958Z,1.95
2022-11-01T18:17:33.931Z,1.77
2022-11-01T18:20:19.445Z,1.95
2022-11-01T18:23:06.420Z,1.85
2022-11-01T18:25:36.969Z,1.70
2022-11-01T18:28:14.326Z,2.03
2022-11-01T18:30:52.887Z,1.52
2022-11-01T18:33:44.519Z,3.00
2022-11-01T18:36:12.094Z,2.65
2022-11-01T18:39:05.374Z,0.93
2022-11-01T18:41:32.225Z,3.58
2022-11-01T18:44:00.058Z,2.20
2022-11-01T18:46:37.474Z,2.72
2022-11-01T18:49:09.163Z,1.65
2022-11-01T18:51:36.934Z,1.50
2022-11-01T18:54:09.805Z,1.80
2022-11-01T18:56:50.864Z,1.27
2022-11-01T18:59:30.592Z,2.88
2022-11-01T19:02:13.741Z,1.67
2022-11-01T19:04:44.560Z,1.35
2022-11-01T19:07:13.650Z,1.30
2022-11-01T19:09:44.036Z,1.27
2022-11-01T19:12:16.672Z,1.05
2022-11-01T19:14:46.896Z,1.63
2022-11-01T19:17:24.584Z,1.73
2022-11-01T19:19:55.170Z,1.75
2022-11-01T19:22:40.224Z,2.40
2022-11-01T19:25:16.211Z,1.75
2022-11-01T19:27:43.432Z,0.63
2022-11-01T19:30:29.856Z,1.05
2022-11-01T19:32:58.415Z,1.95
2022-11-01T19:35:25.273Z,1.48
2022-11-01T19:37:53.931Z,0.70
2022-11-01T19:40:33.387Z,1.65
2022-11-01T19:43:09.159Z,2.35
2022-11-01T19:45:36.995Z,1.58
2022-11-01T19:48:04.679Z,1.58
2022-11-01T19:50:40.474Z,0.52
2022-11-01T19:53:20.877Z,1.67
2022-11-01T19:56:06.615Z,1.15
2022-11-01T19:58:49.148Z,2.17
2022-11-01T20:01:33.923Z,2.65
2022-11-01T20:04:07.267Z,6.55
2022-11-01T20:09:09.313Z,3.88
2022-11-01T20:11:36.094Z,2.38
2022-11-01T20:14:03.383Z,3.20
2022-11-01T20:16:30.797Z,2.22
2022-11-01T20:18:57.624Z,3.47
2022-11-01T20:21:24.648Z,1.65
2022-11-01T20:23:51.419Z,1.33
2022-11-01T20:26:18.391Z,1.42
2022-11-01T20:28:45.263Z,0.93
2022-11-01T20:31:12.129Z,0.98
2022-11-01T20:33:38.936Z,0.57
2022-11-01T20:36:10.974Z,2.03
2022-11-01T20:38:38.704Z,0.40
2022-11-01T20:41:06.210Z,1.40
2022-11-01T20:43:33.114Z,0.93
2022-11-01T20:46:00.032Z,1.77
2022-11-01T20:48:26.826Z,1.05
2022-11-01T20:50:53.984Z,1.38
2022-11-01T20:53:21.524Z,0.60
2022-11-01T20:55:50.491Z,0.43
2022-11-01T20:58:17.965Z,0.57
2022-11-01T21:00:44.848Z,0.90
2022-11-01T21:03:16.244Z,2.03
2022-11-01T21:05:44.688Z,1.33
2022-11-01T21:08:16.333Z,1.00
2022-11-01T21:10:43.576Z,0.50
2022-11-01T21:13:34.023Z,1.02
2022-11-01T21:16:01.534Z,1.17
2022-11-01T21:18:58.507Z,0.65
2022-11-01T21:21:35.858Z,0.63
2022-11-01T21:24:33.836Z,1.42
2022-11-01T21:27:13.114Z,1.80
2022-11-01T21:29:49.525Z,0.40
2022-11-01T21:32:30.593Z,0.40
2022-11-01T21:34:57.989Z,0.88
2022-11-01T21:37:27.437Z,1.05
2022-11-01T21:39:59.029Z,1.00
2022-11-01T21:42:34.058Z,0.90
2022-11-01T21:45:30.853Z,1.38
2022-11-01T21:48:36.405Z,0.80
2022-11-01T21:51:03.310Z,0.40
2022-11-01T21:53:31.456Z,0.82
2022-11-01T21:55:58.262Z,0.95
2022-11-01T21:58:25.168Z,0.98
2022-11-01T22:00:54.364Z,1.27
2022-11-01T22:03:21.428Z,1.60
2022-11-01T22:05:48.317Z,1.48
2022-11-01T22:08:15.056Z,2.78
2022-11-01T22:10:41.849Z,1.15
2022-11-01T22:13:08.865Z,1.27
2022-11-01T22:15:36.009Z,1.27
2022-11-01T22:18:04.025Z,1.42
2022-11-01T22:20:30.828Z,2.05
2022-11-01T22:22:57.572Z,2.33
2022-11-01T22:25:24.389Z,2.95
2022-11-01T22:27:51.251Z,3.25
2022-11-01T22:30:18.180Z,3.45
2022-11-01T22:32:44.960Z,4.15
2022-11-01T22:35:11.940Z,7.53
2022-11-01T22:37:38.963Z,7.65
2022-11-01T22:40:13.627Z,3.60
2022-11-01T22:42:41.304Z,7.07
2022-11-01T22:45:18.525Z,3.45
2022-11-01T22:47:45.966Z,5.13
2022-11-01T22:50:14.667Z,4.15
2022-11-01T22:52:43.462Z,2.00
2022-11-01T22:55:10.137Z,4.03
2022-11-01T22:57:42.473Z,3.30
2022-11-01T23:00:24.630Z,2.90
2022-11-01T23:02:51.587Z,3.95
2022-11-01T23:05:19.738Z,6.05
2022-11-01T23:07:57.152Z,2.85
2022-11-01T23:10:31.863Z,4.68
2022-11-01T23:13:29.316Z,6.07
2022-11-01T23:16:00.309Z,3.50
2022-11-01T23:18:28.945Z,4.35
2022-11-01T23:20:57.828Z,2.53
2022-11-01T23:23:24.565Z,3.70
2022-11-01T23:25:52.170Z,4.43
2022-11-01T23:28:19.118Z,2.63
2022-11-01T23:30:46.988Z,3.92
2022-11-01T23:33:18.414Z,3.35
2022-11-01T23:35:55.932Z,2.60
2022-11-01T23:38:33.715Z,5.60
2022-11-01T23:41:00.551Z,4.57
2022-11-01T23:43:36.009Z,3.22
2022-11-01T23:46:02.919Z,3.88
2022-11-01T23:48:29.786Z,2.78
2022-11-01T23:50:56.570Z,5.30
2022-11-01T23:53:31.879Z,3.38
2022-11-01T23:55:58.870Z,2.90
